createdAt,value
2022-08-03T00:01:28.019Z,17.76
2022-08-03T00:03:54.711Z,17.73
2022-08-03T00:06:33.756Z,17.71
2022-08-03T00:09:05.169Z,17.69
2022-08-03T00:11:39.693Z,17.68
2022-08-03T00:14:07.041Z,17.66
2022-08-03T00:16:33.948Z,17.63
2022-08-03T00:19:01.308Z,17.62
2022-08-03T00:21:28.912Z,17.59
2022-08-03T00:23:55.517Z,17.54
2022-08-03T00:26:24.634Z,17.50
2022-08-03T00:28:51.658Z,17.48
2022-08-03T00:31:27.780Z,17.47
2022-08-03T00:34:09.234Z,17.42
2022-08-03T00:36:35.781Z,17.36
2022-08-03T00:39:02.259Z,17.26
2022-08-03T00:41:28.900Z,17.21
2022-08-03T00:43:55.400Z,17.17
2022-08-03T00:46:25.370Z,17.12
2022-08-03T00:48:53.183Z,17.07
2022-08-03T00:51:25.268Z,17.03
2022-08-03T00:53:52.323Z,17.01
2022-08-03T00:56:30.409Z,16.99
2022-08-03T00:58:58.260Z,16.96
2022-08-03T01:01:45.549Z,16.95
2022-08-03T01:04:12.202Z,16.91
2022-08-03T01:06:49.204Z,16.88
2022-08-03T01:09:24.142Z,16.86
2022-08-03T01:12:07.936Z,16.75
2022-08-03T01:14:39.852Z,16.70
2022-08-03T01:17:21.626Z,16.65
2022-08-03T01:20:02.091Z,16.58
2022-08-03T01:22:51.937Z,16.57
2022-08-03T01:25:43.023Z,16.55
2022-08-03T01:28:24.576Z,16.53
2022-08-03T01:30:55.309Z,16.52
2022-08-03T01:33:34.453Z,16.50
2022-08-03T01:36:05.120Z,16.50
2022-08-03T01:38:38.627Z,16.50
2022-08-03T01:41:10.752Z,16.49
2022-08-03T01:44:27.759Z,16.47
2022-08-03T01:46:28.582Z,16.44
2022-08-03T01:48:56.139Z,16.43
2022-08-03T01:51:23.089Z,16.41
2022-08-03T01:53:54.769Z,16.42
2022-08-03T01:56:24.802Z,16.34
2022-08-03T01:58:54.338Z,16.30
2022-08-03T02:01:23.027Z,16.30
2022-08-03T02:04:00.614Z,16.29
2022-08-03T02:07:00.696Z,16.28
2022-08-03T02:09:21.526Z,16.27
2022-08-03T02:11:49.428Z,16.26
2022-08-03T02:14:17.254Z,16.25
2022-08-03T02:16:45.901Z,16.26
2022-08-03T02:19:13.686Z,16.25
2022-08-03T02:21:55.688Z,16.25
2022-08-03T02:24:27.103Z,16.24
2022-08-03T02:26:56.446Z,16.26
2022-08-03T02:29:39.800Z,16.28
2022-08-03T02:32:12.403Z,16.26
2022-08-03T02:34:40.447Z,16.26
2022-08-03T02:37:10.244Z,16.26
2022-08-03T02:39:38.984Z,16.25
2022-08-03T02:42:07.080Z,16.19
2022-08-03T02:44:34.165Z,16.08
2022-08-03T02:47:09.711Z,16.02
2022-08-03T02:49:50.055Z,15.97
2022-08-03T02:52:20.692Z,15.95
2022-08-03T02:54:51.271Z,15.93
2022-08-03T02:57:20.745Z,15.95
2022-08-03T02:59:47.758Z,15.92
2022-08-03T03:02:16.901Z,15.92
2022-08-03T03:05:50.558Z,15.90
2022-08-03T03:07:34.663Z,15.89
2022-08-03T03:10:19.877Z,15.87
2022-08-03T03:12:47.134Z,15.86
2022-08-03T03:15:13.674Z,15.82
2022-08-03T03:17:43.072Z,15.79
2022-08-03T03:20:10.163Z,15.77
2022-08-03T03:22:38.033Z,15.74
2022-08-03T03:25:07.519Z,15.71
2022-08-03T03:27:34.419Z,15.71
2022-08-03T03:30:01.306Z,15.69
2022-08-03T03:32:29.540Z,15.63
2022-08-03T03:34:56.697Z,15.61
2022-08-03T03:37:23.178Z,15.64
2022-08-03T03:39:49.705Z,15.65
2022-08-03T03:42:16.676Z,15.71
2022-08-03T03:44:43.447Z,15.71
2022-08-03T03:47:09.956Z,15.72
2022-08-03T03:49:37.829Z,15.76
2022-08-03T03:52:04.667Z,15.79
2022-08-03T03:54:45.241Z,15.83
2022-08-03T03:57:13.082Z,15.86
2022-08-03T03:59:43.536Z,15.88
2022-08-03T04:02:11.536Z,15.90
2022-08-03T04:04:57.290Z,15.93
2022-08-03T04:07:44.208Z,15.95
2022-08-03T04:10:39.493Z,15.95
2022-08-03T04:13:10.109Z,15.96
2022-08-03T04:15:39.612Z,15.97
2022-08-03T04:18:09.729Z,16.01
2022-08-03T04:20:39.017Z,16.07
2022-08-03T04:23:13.613Z,16.10
2022-08-03T04:25:43.932Z,16.16
2022-08-03T04:28:30.530Z,16.21
2022-08-03T04:30:59.775Z,16.26
2022-08-03T04:33:29.659Z,16.30
2022-08-03T04:36:02.749Z,16.35
2022-08-03T04:38:37.600Z,16.41
2022-08-03T04:41:04.788Z,16.47
2022-08-03T04:43:33.431Z,16.53
2022-08-03T04:46:01.487Z,16.61
2022-08-03T04:48:28.645Z,16.78
2022-08-03T04:50:55.368Z,16.92
2022-08-03T04:53:22.426Z,17.02
2022-08-03T04:55:49.975Z,17.08
2022-08-03T04:58:16.685Z,17.12
2022-08-03T05:00:43.383Z,17.18
2022-08-03T05:03:19.512Z,17.22
2022-08-03T05:06:09.442Z,17.29
2022-08-03T05:08:41.118Z,17.37
2022-08-03T05:11:13.242Z,17.48
2022-08-03T05:13:39.616Z,17.57
2022-08-03T05:16:06.189Z,17.69
2022-08-03T05:18:32.761Z,17.84
2022-08-03T05:20:59.217Z,17.98
2022-08-03T05:23:25.653Z,18.14
2022-08-03T05:25:52.064Z,18.37
2022-08-03T05:28:19.945Z,18.84
2022-08-03T05:30:46.374Z,19.94
2022-08-03T05:33:12.820Z,21.37
2022-08-03T05:35:55.788Z,22.68
2022-08-03T05:38:28.729Z,24.05
2022-08-03T05:41:22.096Z,25.11
2022-08-03T05:43:44.018Z,26.22
2022-08-03T05:46:13.061Z,26.71
2022-08-03T05:48:40.028Z,27.05
2022-08-03T05:51:08.198Z,27.70
2022-08-03T05:53:34.733Z,28.15
2022-08-03T05:56:13.255Z,28.79
2022-08-03T05:58:46.778Z,28.89
2022-08-03T06:01:13.892Z,29.23
2022-08-03T06:04:05.052Z,29.39
2022-08-03T06:06:39.199Z,29.88
2022-08-03T06:09:05.723Z,29.88
2022-08-03T06:11:41.518Z,30.29
2022-08-03T06:14:07.978Z,30.73
2022-08-03T06:16:35.454Z,31.04
2022-08-03T06:19:01.911Z,31.62
2022-08-03T06:21:28.377Z,31.67
2022-08-03T06:23:55.748Z,31.41
2022-08-03T06:26:35.792Z,32.03
2022-08-03T06:29:03.803Z,31.95
2022-08-03T06:31:33.844Z,32.22
2022-08-03T06:34:33.153Z,32.04
2022-08-03T06:36:50.957Z,32.30
2022-08-03T06:39:38.526Z,32.13
2022-08-03T06:42:05.062Z,31.71
2022-08-03T06:44:43.347Z,31.93
2022-08-03T06:47:09.896Z,31.91
2022-08-03T06:50:16.620Z,31.97
2022-08-03T06:52:44.029Z,31.68
2022-08-03T06:55:10.552Z,31.80
2022-08-03T07:00:58.061Z,32.10
2022-08-03T07:03:27.371Z,31.69
2022-08-03T07:05:53.899Z,32.17
2022-08-03T07:08:33.623Z,32.30
2022-08-03T07:11:01.472Z,32.47
2022-08-03T07:13:30.089Z,32.52
2022-08-03T07:15:56.918Z,32.36
2022-08-03T07:18:39.715Z,32.30
2022-08-03T07:21:08.207Z,32.25
2022-08-03T07:23:35.053Z,31.86
2022-08-03T07:26:01.851Z,31.80
2022-08-03T07:28:28.496Z,31.11
2022-08-03T07:30:55.293Z,30.99
2022-08-03T07:33:23.307Z,30.43
2022-08-03T07:35:51.327Z,30.14
2022-08-03T07:38:21.012Z,30.15
2022-08-03T07:40:48.167Z,29.98
2022-08-03T07:43:14.858Z,29.86
2022-08-03T07:53:00.327Z,30.20
2022-08-03T07:55:47.900Z,30.01
2022-08-03T07:58:49.114Z,30.21
2022-08-03T08:03:59.571Z,30.66
2022-08-03T08:06:26.259Z,30.69
2022-08-03T08:08:54.092Z,30.73
2022-08-03T08:11:22.358Z,30.52
2022-08-03T08:13:49.091Z,30.35
2022-08-03T08:16:15.900Z,30.22
2022-08-03T08:18:42.546Z,30.24
2022-08-03T08:21:10.315Z,30.50
2022-08-03T08:23:42.500Z,30.78
2022-08-03T08:26:11.083Z,31.05
2022-08-03T08:28:37.527Z,31.23
2022-08-03T08:31:04.132Z,31.43
2022-08-03T08:33:48.296Z,31.57
2022-08-03T08:36:17.381Z,31.58
2022-08-03T08:39:28.705Z,31.22
2022-08-03T08:41:55.386Z,31.51
2022-08-03T08:44:32.281Z,31.85
2022-08-03T08:47:02.619Z,31.76
2022-08-03T08:50:27.374Z,31.77
2022-08-03T08:54:03.240Z,31.73
2022-08-03T09:03:54.407Z,31.54
2022-08-03T09:06:53.713Z,31.76
2022-08-03T09:10:10.571Z,31.77
2022-08-03T09:12:42.213Z,31.55
2022-08-03T09:15:35.904Z,31.48
2022-08-03T09:18:04.216Z,31.44
2022-08-03T09:20:34.311Z,31.42
2022-08-03T09:23:19.169Z,31.53
2022-08-03T09:25:59.896Z,31.83
2022-08-03T09:28:57.937Z,32.05
2022-08-03T09:31:31.568Z,32.29
2022-08-03T09:34:01.372Z,32.57
2022-08-03T09:36:54.543Z,32.57
2022-08-03T09:39:41.541Z,32.67
2022-08-03T09:42:18.389Z,32.54
2022-08-03T09:44:47.291Z,32.41
2022-08-03T09:47:17.267Z,32.53
2022-08-03T09:50:14.243Z,32.77
2022-08-03T09:56:33.784Z,33.37
2022-08-03T09:58:51.241Z,33.39
2022-08-03T10:01:24.121Z,33.43
2022-08-03T10:04:04.011Z,33.31
2022-08-03T10:06:31.377Z,33.42
2022-08-03T10:09:10.315Z,33.51
2022-08-03T10:11:41.594Z,33.58
2022-08-03T10:14:11.201Z,33.57
2022-08-03T10:16:39.990Z,33.52
2022-08-03T10:22:48.144Z,33.46
2022-08-03T10:25:17.065Z,33.32
2022-08-03T10:28:31.058Z,33.39
2022-08-03T10:31:38.821Z,33.46
2022-08-03T10:34:27.073Z,33.28
2022-08-03T10:36:58.421Z,33.06
2022-08-03T10:39:29.393Z,33.11
2022-08-03T10:41:59.878Z,33.51
2022-08-03T10:48:26.847Z,34.29
2022-08-03T10:50:54.099Z,34.27
2022-08-03T10:53:40.593Z,34.33
2022-08-03T10:56:51.273Z,34.18
2022-08-03T10:59:27.695Z,34.13
2022-08-03T11:02:00.153Z,34.33
2022-08-03T11:04:29.972Z,34.32
2022-08-03T11:07:25.043Z,34.08
2022-08-03T11:09:54.408Z,34.18
2022-08-03T11:19:56.868Z,34.62
2022-08-03T11:22:25.194Z,34.54
2022-08-03T11:24:54.153Z,34.60
2022-08-03T11:27:26.047Z,34.71
2022-08-03T11:30:09.560Z,34.98
2022-08-03T11:32:48.376Z,35.18
2022-08-03T11:35:16.966Z,35.24
2022-08-03T11:38:04.395Z,34.77
2022-08-03T11:40:54.736Z,34.65
2022-08-03T11:43:31.379Z,34.57
2022-08-03T11:46:07.521Z,34.57
2022-08-03T11:48:34.028Z,34.81
2022-08-03T11:51:01.668Z,35.09
2022-08-03T11:53:28.968Z,35.25
2022-08-03T11:55:59.440Z,35.16
2022-08-03T11:59:10.993Z,35.41
2022-08-03T12:01:13.726Z,35.58
2022-08-03T12:03:40.525Z,35.08
2022-08-03T12:06:10.747Z,35.09
2022-08-03T12:08:37.561Z,34.88
2022-08-03T12:11:06.792Z,34.83
2022-08-03T12:14:44.169Z,34.68
2022-08-03T12:16:31.980Z,34.52
2022-08-03T12:19:03.982Z,34.62
2022-08-03T12:21:45.774Z,34.39
2022-08-03T12:24:24.340Z,34.58
2022-08-03T12:26:58.162Z,34.67
2022-08-03T12:37:22.099Z,35.15
2022-08-03T12:40:10.459Z,35.25
2022-08-03T12:42:39.765Z,35.66
2022-08-03T12:45:34.653Z,36.01
2022-08-03T12:48:12.464Z,36.06
2022-08-03T12:50:40.334Z,35.96
2022-08-03T12:53:09.358Z,35.85
2022-08-03T12:55:40.166Z,35.76
2022-08-03T12:58:36.210Z,35.38
2022-08-03T13:01:10.142Z,35.25
2022-08-03T13:03:49.652Z,35.67
2022-08-03T13:08:28.079Z,35.61
2022-08-03T13:10:17.693Z,35.59
2022-08-03T13:13:14.549Z,35.67
2022-08-03T13:16:18.989Z,35.62
2022-08-03T13:33:22.727Z,35.20
2022-08-03T13:35:50.886Z,35.06
2022-08-03T13:38:17.939Z,35.19
2022-08-03T13:40:49.428Z,35.37
2022-08-03T13:43:16.589Z,35.50
2022-08-03T13:45:49.373Z,35.23
2022-08-03T13:48:36.905Z,35.23
2022-08-03T13:51:11.987Z,35.38
2022-08-03T13:53:49.845Z,35.19
2022-08-03T13:56:17.417Z,34.71
2022-08-03T13:58:44.166Z,34.73
2022-08-03T14:01:13.169Z,34.69
2022-08-03T14:03:39.878Z,34.93
2022-08-03T14:06:06.512Z,35.11
2022-08-03T14:08:33.185Z,35.38
2022-08-03T14:10:59.915Z,35.44
2022-08-03T14:13:26.625Z,35.65
2022-08-03T14:15:53.269Z,35.63
2022-08-03T14:18:28.477Z,35.79
2022-08-03T14:21:01.910Z,36.04
2022-08-03T14:23:32.666Z,36.10
2022-08-03T14:25:59.551Z,36.01
2022-08-03T14:28:26.306Z,35.98
2022-08-03T14:30:54.641Z,36.06
2022-08-03T14:33:22.022Z,35.61
2022-08-03T14:35:49.478Z,35.67
2022-08-03T14:38:17.609Z,35.59
2022-08-03T14:40:45.215Z,35.50
2022-08-03T14:43:12.393Z,35.55
2022-08-03T14:45:40.289Z,35.70
2022-08-03T14:50:30.652Z,35.75
2022-08-03T14:50:55.501Z,36.05
2022-08-03T14:53:23.297Z,35.95
2022-08-03T14:55:51.986Z,35.88
2022-08-03T14:58:27.633Z,35.96
2022-08-03T15:00:56.010Z,35.60
2022-08-03T15:03:24.955Z,35.58
2022-08-03T15:05:56.809Z,35.50
2022-08-03T15:08:25.005Z,35.41
2022-08-03T15:10:53.143Z,35.46
2022-08-03T15:13:21.630Z,35.41
2022-08-03T15:15:51.959Z,35.49
2022-08-03T15:22:05.500Z,35.65
2022-08-03T15:24:35.748Z,35.80
2022-08-03T15:27:02.318Z,35.81
2022-08-03T15:30:08.221Z,35.70
2022-08-03T15:32:20.508Z,35.85
2022-08-03T15:34:50.374Z,35.71
2022-08-03T15:37:19.213Z,35.74
2022-08-03T15:39:59.345Z,35.69
2022-08-03T15:42:27.146Z,35.59
2022-08-03T15:44:54.530Z,35.62
2022-08-03T15:47:21.765Z,35.50
2022-08-03T15:49:48.698Z,35.54
2022-08-03T15:52:15.387Z,35.25
2022-08-03T15:54:42.061Z,35.21
2022-08-03T15:57:08.803Z,35.07
2022-08-03T15:59:35.466Z,34.93
2022-08-03T16:02:02.348Z,34.78
2022-08-03T16:04:29.086Z,34.61
2022-08-03T16:06:55.747Z,34.53
2022-08-03T16:09:22.836Z,34.51
2022-08-03T16:12:14.482Z,34.50
2022-08-03T16:14:52.839Z,34.55
2022-08-03T16:17:22.086Z,34.66
2022-08-03T16:19:49.151Z,34.64
2022-08-03T16:22:19.499Z,34.55
2022-08-03T16:24:47.489Z,34.41
2022-08-03T16:27:36.633Z,34.37
2022-08-03T16:30:01.463Z,34.33
2022-08-03T16:32:28.244Z,34.28
2022-08-03T16:34:54.969Z,34.17
2022-08-03T16:37:41.275Z,34.14
2022-08-03T16:40:17.311Z,34.16
2022-08-03T16:42:47.052Z,34.10
2022-08-03T16:45:14.358Z,34.08
2022-08-03T16:51:13.696Z,34.06
2022-08-03T16:54:07.942Z,34.08
2022-08-03T16:56:29.414Z,33.98
2022-08-03T16:58:56.697Z,33.81
2022-08-03T17:01:24.646Z,33.68
2022-08-03T17:04:03.446Z,33.47
2022-08-03T17:06:37.476Z,33.50
2022-08-03T17:09:11.166Z,33.51
2022-08-03T17:11:44.145Z,33.57
2022-08-03T17:14:16.013Z,33.42
2022-08-03T17:16:52.979Z,33.39
2022-08-03T17:19:23.728Z,33.31
2022-08-03T17:22:02.153Z,33.24
2022-08-03T17:24:35.548Z,33.22
2022-08-03T17:28:41.492Z,33.19
2022-08-03T17:30:13.474Z,33.13
2022-08-03T17:32:52.707Z,32.96
2022-08-03T17:35:24.839Z,32.81
2022-08-03T17:38:06.733Z,32.71
2022-08-03T17:40:37.968Z,32.54
2022-08-03T17:44:13.194Z,32.40
2022-08-03T17:45:54.576Z,32.35
2022-08-03T17:48:25.564Z,32.20
2022-08-03T17:51:17.296Z,32.06
2022-08-03T17:54:05.811Z,31.94
2022-08-03T17:56:57.766Z,31.82
2022-08-03T17:59:50.653Z,31.68
2022-08-03T18:02:47.638Z,31.53
2022-08-03T18:05:17.710Z,31.34
2022-08-03T18:08:01.455Z,31.18
2022-08-03T18:10:35.161Z,31.02
2022-08-03T18:13:10.632Z,30.87
2022-08-03T18:15:50.380Z,30.73
2022-08-03T18:18:32.506Z,30.62
2022-08-03T18:21:04.566Z,30.50
2022-08-03T18:23:36.800Z,30.39
2022-08-03T18:26:07.499Z,30.27
2022-08-03T18:28:39.399Z,30.14
2022-08-03T18:31:11.661Z,30.04
2022-08-03T18:36:30.466Z,29.76
2022-08-03T18:38:59.686Z,29.63
2022-08-03T18:41:32.246Z,29.51
2022-08-03T18:44:08.496Z,29.37
2022-08-03T18:46:42.112Z,29.20
2022-08-03T18:49:50.655Z,29.03
2022-08-03T18:52:27.112Z,28.86
2022-08-03T18:55:02.652Z,28.70
2022-08-03T18:57:46.503Z,28.52
2022-08-03T19:00:24.551Z,28.37
2022-08-03T19:03:12.403Z,28.15
2022-08-03T19:06:02.448Z,27.97
2022-08-03T19:08:38.600Z,27.78
2022-08-03T19:11:10.117Z,27.64
2022-08-03T19:13:50.758Z,27.47
2022-08-03T19:20:06.275Z,27.15
2022-08-03T19:22:33.908Z,27.02
2022-08-03T19:25:02.503Z,26.90
2022-08-03T19:27:31.557Z,26.78
2022-08-03T19:30:07.620Z,26.66
2022-08-03T19:32:41.593Z,26.51
2022-08-03T19:35:18.998Z,26.41
2022-08-03T19:38:02.720Z,26.36
2022-08-03T19:40:32.800Z,26.26
2022-08-03T19:43:17.530Z,26.22
2022-08-03T19:46:04.916Z,26.14
2022-08-03T19:48:35.452Z,26.07
2022-08-03T19:51:04.645Z,26.03
2022-08-03T19:53:45.160Z,25.97
2022-08-03T19:56:14.461Z,25.89
2022-08-03T19:58:43.241Z,25.83
2022-08-03T20:01:19.270Z,25.79
2022-08-03T20:03:49.055Z,25.71
2022-08-03T20:06:17.282Z,25.65
2022-08-03T20:08:44.221Z,25.52
2022-08-03T20:11:11.747Z,25.42
2022-08-03T20:13:39.167Z,25.35
2022-08-03T20:16:06.265Z,25.26
2022-08-03T20:18:39.268Z,25.20
2022-08-03T20:21:15.256Z,25.12
2022-08-03T20:24:01.739Z,25.00
2022-08-03T20:26:30.640Z,24.92
2022-08-03T20:29:06.103Z,24.85
2022-08-03T20:31:37.767Z,24.79
2022-08-03T20:34:06.528Z,24.74
2022-08-03T20:36:33.367Z,24.69
2022-08-03T20:39:00.144Z,24.60
2022-08-03T20:41:27.096Z,24.52
2022-08-03T20:43:54.456Z,24.45
2022-08-03T20:46:32.821Z,24.39
2022-08-03T20:49:06.178Z,24.32
2022-08-03T20:51:50.083Z,24.24
2022-08-03T20:54:29.661Z,24.18
2022-08-03T20:57:00.821Z,24.11
2022-08-03T21:02:29.505Z,23.96
2022-08-03T21:05:02.873Z,23.89
2022-08-03T21:08:06.250Z,23.80
2022-08-03T21:10:37.893Z,23.75
2022-08-03T21:13:04.224Z,29.90
2022-08-03T21:13:07.829Z,24.05
2022-08-03T21:13:18.937Z,23.67
2022-08-03T21:16:11.483Z,23.64
2022-08-03T21:18:44.425Z,23.60
2022-08-03T21:21:16.293Z,23.56
2022-08-03T21:23:48.929Z,23.50
2022-08-03T21:26:19.029Z,23.47
2022-08-03T21:28:51.314Z,23.44
2022-08-03T21:31:24.368Z,23.42
2022-08-03T21:33:58.110Z,23.39
2022-08-03T21:36:27.962Z,23.38
2022-08-03T21:38:57.261Z,23.36
2022-08-03T21:41:29.917Z,23.34
2022-08-03T21:43:57.661Z,23.34
2022-08-03T21:46:26.751Z,23.33
2022-08-03T21:50:05.120Z,23.34
2022-08-03T21:51:50.269Z,23.33
2022-08-03T21:54:20.353Z,23.31
2022-08-03T21:56:48.381Z,23.30
2022-08-03T21:59:23.274Z,23.28
2022-08-03T22:01:55.221Z,23.26
2022-08-03T22:04:50.241Z,23.23
2022-08-03T22:07:12.722Z,23.18
2022-08-03T22:09:39.825Z,23.12
2022-08-03T22:12:17.518Z,23.06
2022-08-03T22:14:45.237Z,23.01
2022-08-03T22:17:12.385Z,22.95
2022-08-03T22:19:59.101Z,22.91
2022-08-03T22:22:28.516Z,22.87
2022-08-03T22:25:04.284Z,22.84
2022-08-03T22:27:34.395Z,22.82
2022-08-03T22:30:21.580Z,22.80
2022-08-03T22:32:52.075Z,22.78
2022-08-03T22:35:21.027Z,22.76
2022-08-03T22:37:49.693Z,22.73
2022-08-03T22:40:17.028Z,22.71
2022-08-03T22:42:46.066Z,22.66
2022-08-03T22:46:06.112Z,22.62
2022-08-03T22:48:00.462Z,22.59
2022-08-03T22:50:32.045Z,22.58
2022-08-03T22:53:00.413Z,22.56
2022-08-03T22:55:27.674Z,22.55
2022-08-03T22:57:56.014Z,22.50
2022-08-03T23:00:24.196Z,22.48
2022-08-03T23:02:53.687Z,22.45
2022-08-03T23:06:01.645Z,22.40
2022-08-03T23:08:15.173Z,22.33
2022-08-03T23:10:47.055Z,22.25
2022-08-03T23:13:17.450Z,22.19
2022-08-03T23:15:51.444Z,22.11
2022-08-03T23:18:22.183Z,22.00
2022-08-03T23:20:52.975Z,21.91
2022-08-03T23:23:20.595Z,21.89
2022-08-03T23:25:49.784Z,21.83
2022-08-03T23:28:17.360Z,21.79
2022-08-03T23:30:45.548Z,21.73
2022-08-03T23:33:14.957Z,21.71
2022-08-03T23:36:28.725Z,21.68
2022-08-03T23:38:46.290Z,21.65
2022-08-03T23:41:14.016Z,21.62
2022-08-03T23:43:51.083Z,21.59
2022-08-03T23:46:20.086Z,21.56
2022-08-03T23:48:46.856Z,21.54
2022-08-03T23:51:40.734Z,21.50
2022-08-03T23:54:55.266Z,21.44
2022-08-03T23:57:43.258Z,21.40
